Terminal Aerodrome Forecast
Issued by NWS Twin Cities, MN

Home | Current Version | Previous Version | Text Only | Print | Product List | Glossary On
Versions: 1 2 3 4 5 6 7 8 9 10 11 12 13 14 15 16 17 18 19 20 21 22 23 24 25 26
725
FTUS43 KMPX 130841 AAA
TAFMSP
TAF AMD
KMSP 130841Z 1309/1412 31005KT P6SM SKC
     FM131200 VRB02KT P6SM FEW250
     FM131800 16004KT P6SM SCT250
     FM140600 13007KT P6SM OVC100
     FM140900 12007KT P6SM OVC050=

USA.gov is the U.S. government's official web portal to all federal, state and local government web resources and services.